createdAt,value
2022-09-11T00:00:18.090Z,8.88
2022-09-11T00:02:48.529Z,8.52
2022-09-11T00:05:18.859Z,8.18
2022-09-11T00:07:49.834Z,8.82
2022-09-11T00:10:20.353Z,10.65
2022-09-11T00:15:21.501Z,5.32
2022-09-11T00:17:51.877Z,5.75
2022-09-11T00:20:22.754Z,5.30
2022-09-11T00:22:54.821Z,5.70
2022-09-11T00:25:25.238Z,5.95
2022-09-11T00:27:56.076Z,6.80
2022-09-11T00:30:26.523Z,8.25
2022-09-11T00:32:57.747Z,8.18
2022-09-11T00:35:28.279Z,8.60
2022-09-11T00:37:58.687Z,8.48
2022-09-11T00:40:29.119Z,10.57
2022-09-11T00:42:59.827Z,12.80
2022-09-11T00:45:30.595Z,12.88
2022-09-11T00:48:01.884Z,12.95
2022-09-11T00:50:33.979Z,11.52
2022-09-11T00:53:11.344Z,11.68
2022-09-11T00:55:46.431Z,12.98
2022-09-11T00:58:22.476Z,11.27
2022-09-11T01:00:54.381Z,12.13
2022-09-11T01:03:28.178Z,12.52
2022-09-11T01:06:00.225Z,10.68
2022-09-11T01:08:34.314Z,24.30
2022-09-11T01:11:45.510Z,43.17
2022-09-11T01:14:40.068Z,21.13
2022-09-11T01:17:30.144Z,14.15
2022-09-11T01:20:11.495Z,8.90
2022-09-11T01:22:48.266Z,12.15
2022-09-11T01:25:40.323Z,9.07
2022-09-11T01:28:45.404Z,8.77
2022-09-11T01:31:23.541Z,7.65
2022-09-11T01:34:02.023Z,6.20
2022-09-11T01:36:43.987Z,5.65
2022-09-11T01:39:20.337Z,5.85
2022-09-11T01:41:56.894Z,4.32
2022-09-11T01:44:42.773Z,4.45
2022-09-11T01:47:14.988Z,4.15
2022-09-11T01:50:07.530Z,3.67
2022-09-11T01:52:47.047Z,3.60
2022-09-11T01:55:46.068Z,4.25
2022-09-11T01:58:33.529Z,3.53
2022-09-11T02:01:11.719Z,3.38
2022-09-11T02:03:47.906Z,3.33
2022-09-11T02:06:28.172Z,3.95
2022-09-11T02:09:07.702Z,3.70
2022-09-11T02:11:43.908Z,3.25
2022-09-11T02:14:26.008Z,3.65
2022-09-11T02:17:19.566Z,3.28
2022-09-11T02:19:50.595Z,3.72
2022-09-11T02:22:22.356Z,3.60
2022-09-11T02:24:53.548Z,3.40
2022-09-11T02:27:28.615Z,3.10
2022-09-11T02:30:00.329Z,3.05
2022-09-11T02:32:37.908Z,3.28
2022-09-11T02:35:09.090Z,3.25
2022-09-11T02:37:51.861Z,4.55
2022-09-11T02:40:59.714Z,5.63
2022-09-11T02:43:59.272Z,5.28
2022-09-11T02:46:42.875Z,5.78
2022-09-11T02:49:56.118Z,5.90
2022-09-11T02:52:32.503Z,5.13
2022-09-11T02:55:14.754Z,4.35
2022-09-11T02:58:30.632Z,4.72
2022-09-11T03:01:04.006Z,3.67
2022-09-11T03:03:46.695Z,3.90
2022-09-11T03:06:25.909Z,3.45
2022-09-11T03:08:57.055Z,4.32
2022-09-11T03:11:27.687Z,4.45
2022-09-11T03:14:00.039Z,3.78
2022-09-11T03:16:30.795Z,4.25
2022-09-11T03:19:01.893Z,3.75
2022-09-11T03:21:34.072Z,3.35
2022-09-11T03:24:05.245Z,4.25
2022-09-11T03:26:38.837Z,3.75
2022-09-11T03:29:09.879Z,3.45
2022-09-11T03:31:40.369Z,3.67
2022-09-11T03:34:11.785Z,4.22
2022-09-11T03:36:43.257Z,3.83
2022-09-11T03:39:14.182Z,3.70
2022-09-11T03:41:44.689Z,3.38
2022-09-11T03:44:15.240Z,3.95
2022-09-11T03:46:47.002Z,4.15
2022-09-11T03:49:17.625Z,4.35
2022-09-11T03:54:19.623Z,4.18
2022-09-11T03:56:50.225Z,4.47
2022-09-11T03:59:21.752Z,4.65
2022-09-11T04:01:53.782Z,3.90
2022-09-11T04:04:24.607Z,4.28
2022-09-11T04:06:55.082Z,3.70
2022-09-11T04:09:26.250Z,3.65
2022-09-11T04:11:56.953Z,4.05
2022-09-11T04:14:30.506Z,3.47
2022-09-11T04:17:01.852Z,3.40
2022-09-11T04:19:32.631Z,3.38
2022-09-11T04:22:03.292Z,3.47
2022-09-11T04:24:36.650Z,3.90
2022-09-11T04:29:37.358Z,3.13
2022-09-11T04:32:12.863Z,3.15
2022-09-11T04:34:43.689Z,2.65
2022-09-11T04:37:13.967Z,2.75
2022-09-11T04:39:45.325Z,2.22
2022-09-11T04:42:18.452Z,2.75
2022-09-11T04:44:48.963Z,2.67
2022-09-11T04:47:19.797Z,3.17
2022-09-11T04:49:50.994Z,2.50
2022-09-11T04:52:22.101Z,2.55
2022-09-11T04:54:52.571Z,2.97
2022-09-11T04:57:23.020Z,2.72
2022-09-11T04:59:54.159Z,2.63
2022-09-11T05:02:24.971Z,3.03
2022-09-11T05:04:57.333Z,2.90
2022-09-11T05:07:27.979Z,3.17
2022-09-11T05:09:59.058Z,2.33
2022-09-11T05:12:30.802Z,3.42
2022-09-11T05:15:01.939Z,3.05
2022-09-11T05:17:34.588Z,2.70
2022-09-11T05:20:11.682Z,3.08
2022-09-11T05:22:42.425Z,2.42
2022-09-11T05:25:15.286Z,2.88
2022-09-11T05:27:46.611Z,2.67
2022-09-11T05:32:46.687Z,2.55
2022-09-11T05:35:18.360Z,2.25
2022-09-11T05:40:18.916Z,1.98
2022-09-11T05:42:49.419Z,2.45
2022-09-11T05:45:20.214Z,1.63
2022-09-11T05:47:54.206Z,1.58
2022-09-11T05:52:57.503Z,1.73
2022-09-11T05:55:28.177Z,2.15
2022-09-11T05:57:59.398Z,1.63
2022-09-11T06:00:31.911Z,1.85
2022-09-11T06:03:02.396Z,1.85
2022-09-11T06:05:32.894Z,1.55
2022-09-11T06:08:06.192Z,1.10
2022-09-11T06:10:38.170Z,2.00
2022-09-11T06:13:09.235Z,1.63
2022-09-11T06:15:49.560Z,1.25
2022-09-11T06:18:20.311Z,1.80
2022-09-11T06:21:03.259Z,1.73
2022-09-11T06:23:43.222Z,1.02
2022-09-11T06:26:16.881Z,1.48
2022-09-11T06:28:49.314Z,1.70
2022-09-11T06:31:23.566Z,1.70
2022-09-11T06:33:56.260Z,1.77
2022-09-11T06:36:28.726Z,1.75
2022-09-11T06:39:01.275Z,1.10
2022-09-11T06:41:32.124Z,1.67
2022-09-11T06:44:11.320Z,1.73
2022-09-11T06:46:42.981Z,1.60
2022-09-11T06:49:15.752Z,1.20
2022-09-11T06:52:04.592Z,1.80
2022-09-11T06:54:36.143Z,1.75
2022-09-11T06:57:12.336Z,1.75
2022-09-11T06:59:43.831Z,1.20
2022-09-11T07:02:14.434Z,1.52
2022-09-11T07:04:44.941Z,1.55
2022-09-11T07:07:16.163Z,2.10
2022-09-11T07:09:46.497Z,1.23
2022-09-11T07:12:17.306Z,1.13
2022-09-11T07:14:48.738Z,1.95
2022-09-11T07:17:20.829Z,1.77
2022-09-11T07:19:53.703Z,1.73
2022-09-11T07:22:24.196Z,1.40
2022-09-11T07:24:55.922Z,1.30
2022-09-11T07:27:26.527Z,1.13
2022-09-11T07:29:57.216Z,1.00
2022-09-11T07:32:28.825Z,1.10
2022-09-11T07:34:59.220Z,0.80
2022-09-11T07:37:29.908Z,0.90
2022-09-11T07:40:01.208Z,0.98
2022-09-11T07:42:35.254Z,0.90
2022-09-11T07:45:05.907Z,1.40
2022-09-11T07:47:37.433Z,0.98
2022-09-11T07:50:08.305Z,1.10
2022-09-11T07:52:39.400Z,1.23
2022-09-11T07:55:10.420Z,1.08
2022-09-11T07:57:40.871Z,1.35
2022-09-11T08:00:14.108Z,0.80
2022-09-11T08:02:50.956Z,1.02
2022-09-11T08:05:31.770Z,1.20
2022-09-11T08:10:33.331Z,0.63
2022-09-11T08:13:09.430Z,0.85
2022-09-11T08:15:49.234Z,1.00
2022-09-11T08:18:22.172Z,0.80
2022-09-11T08:20:52.886Z,1.48
2022-09-11T08:23:23.562Z,0.82
2022-09-11T08:28:25.651Z,0.90
2022-09-11T08:33:31.830Z,0.73
2022-09-11T08:36:04.306Z,1.50
2022-09-11T08:38:36.174Z,1.20
2022-09-11T08:43:53.031Z,1.00
2022-09-11T08:46:27.455Z,1.65
2022-09-11T08:49:12.309Z,1.20
2022-09-11T08:51:43.765Z,1.20
2022-09-11T08:54:28.877Z,1.50
2022-09-11T08:57:14.072Z,1.77
2022-09-11T09:00:03.597Z,1.35
2022-09-11T09:02:56.267Z,1.20
2022-09-11T09:05:44.628Z,1.05
2022-09-11T09:08:36.488Z,1.10
2022-09-11T09:11:38.791Z,1.33
2022-09-11T09:14:15.955Z,1.00
2022-09-11T09:17:31.825Z,1.20
2022-09-11T09:20:10.577Z,1.73
2022-09-11T09:23:04.228Z,1.42
2022-09-11T09:25:41.650Z,1.15
2022-09-11T09:28:30.621Z,1.70
2022-09-11T09:33:45.751Z,1.40
2022-09-11T09:36:18.779Z,1.23
2022-09-11T09:38:50.237Z,1.70
2022-09-11T09:41:26.542Z,1.77
2022-09-11T09:44:05.993Z,1.95
2022-09-11T09:46:51.197Z,1.40
2022-09-11T09:49:36.423Z,2.28
2022-09-11T09:52:28.210Z,1.33
2022-09-11T09:55:04.209Z,1.17
2022-09-11T09:57:41.231Z,1.50
2022-09-11T10:02:46.772Z,1.67
2022-09-11T10:05:33.952Z,1.40
2022-09-11T10:08:06.958Z,1.98
2022-09-11T10:10:39.512Z,1.90
2022-09-11T10:13:26.686Z,1.45
2022-09-11T10:16:05.539Z,1.30
2022-09-11T10:18:48.064Z,1.58
2022-09-11T10:21:39.391Z,1.38
2022-09-11T10:24:27.593Z,1.23
2022-09-11T10:26:59.854Z,1.15
2022-09-11T10:29:32.007Z,1.38
2022-09-11T10:32:04.519Z,0.95
2022-09-11T10:34:39.260Z,0.73
2022-09-11T10:37:32.827Z,0.85
2022-09-11T10:40:21.931Z,0.82
2022-09-11T10:42:54.042Z,1.33
2022-09-11T10:45:25.889Z,1.17
2022-09-11T10:47:56.398Z,0.88
2022-09-11T10:50:28.119Z,0.63
2022-09-11T10:53:19.945Z,0.90
2022-09-11T10:56:01.492Z,0.88
2022-09-11T10:58:36.243Z,1.00
2022-09-11T11:01:06.741Z,0.80
2022-09-11T11:03:37.850Z,1.17
2022-09-11T11:06:27.121Z,1.05
2022-09-11T11:09:18.943Z,0.75
2022-09-11T11:12:16.337Z,1.17
2022-09-11T11:15:07.816Z,0.98
2022-09-11T11:18:02.610Z,0.80
2022-09-11T11:21:01.875Z,1.08
2022-09-11T11:24:04.322Z,0.90
2022-09-11T11:26:47.838Z,1.08
2022-09-11T11:29:19.707Z,1.05
2022-09-11T11:32:22.859Z,0.82
2022-09-11T11:35:19.662Z,0.75
2022-09-11T11:38:04.794Z,0.75
2022-09-11T11:40:48.405Z,0.70
2022-09-11T11:43:26.727Z,0.60
2022-09-11T11:46:06.409Z,0.63
2022-09-11T11:48:46.381Z,0.68
2022-09-11T11:51:22.428Z,1.25
2022-09-11T11:54:21.796Z,1.13
2022-09-11T11:57:03.230Z,0.60
2022-09-11T11:59:43.000Z,0.82
2022-09-11T12:02:13.391Z,0.90
2022-09-11T12:04:58.086Z,0.85
2022-09-11T12:07:40.553Z,1.20
2022-09-11T12:10:28.613Z,0.90
2022-09-11T12:13:03.446Z,0.95
2022-09-11T12:15:35.970Z,0.82
2022-09-11T12:18:25.606Z,0.70
2022-09-11T12:21:24.528Z,0.80
2022-09-11T12:24:01.193Z,0.90
2022-09-11T12:26:33.097Z,1.00
2022-09-11T12:29:21.457Z,1.10
2022-09-11T12:31:51.812Z,1.00
2022-09-11T12:34:47.975Z,1.10
2022-09-11T12:37:34.999Z,1.10
2022-09-11T12:40:32.205Z,1.00
2022-09-11T12:43:37.155Z,1.27
2022-09-11T12:46:13.073Z,1.08
2022-09-11T12:48:56.281Z,0.95
2022-09-11T12:51:39.009Z,1.35
2022-09-11T12:54:26.769Z,0.77
2022-09-11T12:57:16.760Z,0.80
2022-09-11T12:59:55.136Z,0.85
2022-09-11T13:02:37.401Z,0.80
2022-09-11T13:05:20.828Z,0.55
2022-09-11T13:07:56.656Z,1.00
2022-09-11T13:10:35.175Z,0.95
2022-09-11T13:13:48.240Z,0.40
2022-09-11T13:16:30.327Z,0.55
2022-09-11T13:19:23.726Z,0.55
2022-09-11T13:21:54.834Z,0.95
2022-09-11T13:24:36.233Z,0.65
2022-09-11T13:27:17.967Z,0.93
2022-09-11T13:29:49.828Z,0.45
2022-09-11T13:32:20.990Z,0.93
2022-09-11T13:35:00.000Z,1.02
2022-09-11T13:37:39.310Z,0.80
2022-09-11T13:40:21.433Z,0.90
2022-09-11T13:42:51.968Z,0.93
2022-09-11T13:47:55.984Z,0.70
2022-09-11T13:50:26.639Z,0.90
2022-09-11T13:52:57.270Z,1.23
2022-09-11T13:55:28.900Z,1.20
2022-09-11T13:58:04.473Z,0.95
2022-09-11T14:00:41.125Z,1.27
2022-09-11T14:03:35.173Z,2.13
2022-09-11T14:06:12.709Z,1.48
2022-09-11T14:08:53.076Z,1.67
2022-09-11T14:11:30.997Z,1.35
2022-09-11T14:14:13.393Z,1.00
2022-09-11T14:16:51.043Z,1.00
2022-09-11T14:19:25.823Z,1.50
2022-09-11T14:21:56.304Z,1.58
2022-09-11T14:24:38.559Z,1.23
2022-09-11T14:27:34.818Z,1.35
2022-09-11T14:30:26.394Z,1.10
2022-09-11T14:33:18.229Z,0.73
2022-09-11T14:35:50.126Z,0.68
2022-09-11T14:38:23.361Z,0.55
2022-09-11T14:41:01.928Z,1.08
2022-09-11T14:43:34.710Z,1.40
2022-09-11T14:46:05.772Z,1.23
2022-09-11T14:48:37.117Z,1.30
2022-09-11T14:51:11.413Z,1.25
2022-09-11T14:53:44.561Z,1.30
2022-09-11T14:56:15.112Z,1.00
2022-09-11T14:58:45.576Z,0.75
2022-09-11T15:03:46.096Z,1.10
2022-09-11T15:06:21.775Z,0.82
2022-09-11T15:08:52.087Z,1.13
2022-09-11T15:11:22.508Z,0.70
2022-09-11T15:16:44.247Z,1.00
2022-09-11T15:19:16.641Z,0.77
2022-09-11T15:21:47.236Z,1.40
2022-09-11T15:24:18.377Z,0.88
2022-09-11T15:26:48.983Z,0.98
2022-09-11T15:29:19.455Z,0.85
2022-09-11T15:31:50.891Z,0.68
2022-09-11T15:34:23.634Z,0.77
2022-09-11T15:36:54.152Z,1.08
2022-09-11T15:39:25.763Z,0.70
2022-09-11T15:41:57.808Z,0.82
2022-09-11T15:44:30.005Z,1.23
2022-09-11T15:47:00.961Z,1.20
2022-09-11T15:49:32.964Z,1.00
2022-09-11T15:52:04.285Z,1.13
2022-09-11T15:54:34.750Z,1.05
2022-09-11T15:57:06.035Z,0.88
2022-09-11T15:59:36.550Z,0.90
2022-09-11T16:02:06.987Z,0.88
2022-09-11T16:04:37.601Z,0.90
2022-09-11T16:07:08.194Z,1.10
2022-09-11T16:09:38.765Z,0.90
2022-09-11T16:12:09.634Z,0.85
2022-09-11T16:14:40.040Z,1.33
2022-09-11T16:17:13.166Z,1.17
2022-09-11T16:19:43.632Z,1.27
2022-09-11T16:22:14.129Z,1.00
2022-09-11T16:24:44.807Z,0.85
2022-09-11T16:27:15.208Z,1.08
2022-09-11T16:32:40.524Z,0.98
2022-09-11T16:35:14.619Z,1.17
2022-09-11T16:37:45.486Z,0.70
2022-09-11T16:40:16.323Z,1.20
2022-09-11T16:42:47.138Z,1.00
2022-09-11T16:45:17.613Z,1.55
2022-09-11T16:47:48.454Z,1.60
2022-09-11T16:50:19.078Z,1.52
2022-09-11T16:52:49.690Z,1.25
2022-09-11T16:55:21.549Z,1.33
2022-09-11T16:57:51.965Z,1.05
2022-09-11T17:00:23.015Z,0.80
2022-09-11T17:02:53.635Z,1.02
2022-09-11T17:05:24.017Z,1.10
2022-09-11T17:07:54.449Z,1.15
2022-09-11T17:10:25.203Z,1.23
2022-09-11T17:12:58.483Z,0.98
2022-09-11T17:15:29.626Z,0.70
2022-09-11T17:18:00.088Z,0.80
2022-09-11T17:20:30.529Z,0.90
2022-09-11T17:23:01.328Z,0.88
2022-09-11T17:25:33.089Z,0.65
2022-09-11T17:28:03.801Z,0.70
2022-09-11T17:30:34.648Z,1.05
2022-09-11T17:33:05.306Z,1.23
2022-09-11T17:35:36.455Z,0.85
2022-09-11T17:38:07.070Z,1.15
2022-09-11T17:40:37.968Z,1.20
2022-09-11T17:43:09.216Z,0.73
2022-09-11T17:45:39.676Z,1.30
2022-09-11T17:48:10.104Z,0.70
2022-09-11T17:50:40.509Z,0.90
2022-09-11T17:53:11.000Z,0.68
2022-09-11T17:55:41.714Z,0.70
2022-09-11T17:58:12.047Z,1.33
2022-09-11T18:00:42.514Z,0.60
2022-09-11T18:03:13.018Z,0.75
2022-09-11T18:05:45.077Z,0.80
2022-09-11T18:08:15.697Z,0.60
2022-09-11T18:11:01.016Z,0.60
2022-09-11T18:13:33.160Z,0.68
2022-09-11T18:16:09.605Z,0.55
2022-09-11T18:18:41.841Z,0.82
2022-09-11T18:21:13.630Z,0.95
2022-09-11T18:23:46.274Z,0.90
2022-09-11T18:26:29.837Z,0.52
2022-09-11T18:29:02.703Z,0.82
2022-09-11T18:31:34.843Z,1.08
2022-09-11T18:34:05.424Z,0.88
2022-09-11T18:36:35.979Z,0.50
2022-09-11T18:39:07.215Z,0.80
2022-09-11T18:41:38.291Z,0.95
2022-09-11T18:44:17.443Z,1.15
2022-09-11T18:46:53.482Z,0.98
2022-09-11T18:49:24.468Z,0.80
2022-09-11T18:51:55.067Z,0.57
2022-09-11T18:54:26.864Z,1.00
2022-09-11T18:56:57.310Z,0.65
2022-09-11T18:59:27.973Z,0.90
2022-09-11T19:02:00.292Z,1.00
2022-09-11T19:04:30.910Z,0.88
2022-09-11T19:07:01.365Z,1.33
2022-09-11T19:09:31.985Z,1.10
2022-09-11T19:12:04.788Z,0.95
2022-09-11T19:14:37.184Z,0.85
2022-09-11T19:17:07.709Z,0.60
2022-09-11T19:19:38.136Z,0.80
2022-09-11T19:22:08.496Z,0.63
2022-09-11T19:24:39.223Z,1.20
2022-09-11T19:27:09.560Z,1.02
2022-09-11T19:29:39.857Z,0.98
2022-09-11T19:32:10.194Z,0.88
2022-09-11T19:34:47.005Z,0.90
2022-09-11T19:37:19.822Z,0.70
2022-09-11T19:39:52.079Z,0.77
2022-09-11T19:42:22.447Z,0.70
2022-09-11T19:44:56.180Z,0.98
2022-09-11T19:47:27.758Z,0.73
2022-09-11T19:50:00.224Z,0.98
2022-09-11T19:52:33.058Z,0.95
2022-09-11T19:55:05.156Z,0.82
2022-09-11T19:57:35.607Z,1.00
2022-09-11T20:00:06.526Z,1.13
2022-09-11T20:02:36.981Z,1.08
2022-09-11T20:05:07.795Z,1.05
2022-09-11T20:07:39.184Z,1.25
2022-09-11T20:10:10.110Z,0.65
2022-09-11T20:12:40.667Z,1.05
2022-09-11T20:15:11.872Z,1.00
2022-09-11T20:17:45.611Z,0.90
2022-09-11T20:20:16.252Z,0.95
2022-09-11T20:22:46.625Z,1.38
2022-09-11T20:25:17.215Z,1.27
2022-09-11T20:27:47.922Z,2.40
2022-09-11T20:30:18.850Z,1.30
2022-09-11T20:32:49.343Z,0.95
2022-09-11T20:35:20.033Z,1.38
2022-09-11T20:37:50.477Z,0.70
2022-09-11T20:40:21.874Z,1.15
2022-09-11T20:42:52.260Z,1.40
2022-09-11T20:47:54.476Z,1.30
2022-09-11T20:50:25.604Z,1.63
2022-09-11T20:52:55.870Z,1.50
2022-09-11T20:55:26.331Z,1.52
2022-09-11T20:57:56.895Z,2.15
2022-09-11T21:00:27.458Z,1.40
2022-09-11T21:02:58.166Z,1.15
2022-09-11T21:05:28.918Z,1.23
2022-09-11T21:07:59.363Z,1.02
2022-09-11T21:13:00.122Z,1.35
2022-09-11T21:15:30.777Z,1.08
2022-09-11T21:18:01.133Z,0.68
2022-09-11T21:23:01.091Z,0.80
2022-09-11T21:25:31.714Z,0.60
2022-09-11T21:28:02.086Z,0.40
2022-09-11T21:30:32.545Z,0.65
2022-09-11T21:35:32.452Z,0.47
2022-09-11T21:38:02.899Z,0.85
2022-09-11T21:40:33.373Z,0.77
2022-09-11T21:43:03.837Z,0.70
2022-09-11T21:48:06.902Z,1.10
2022-09-11T21:50:38.800Z,0.45
2022-09-11T21:53:11.866Z,0.88
2022-09-11T21:55:47.254Z,0.93
2022-09-11T21:58:23.136Z,0.80
2022-09-11T22:00:53.677Z,0.60
2022-09-11T22:03:28.592Z,0.50
2022-09-11T22:05:59.588Z,0.38
2022-09-11T22:08:30.122Z,0.77
2022-09-11T22:11:06.878Z,0.70
2022-09-11T22:16:17.141Z,1.02
2022-09-11T22:18:53.480Z,1.35
2022-09-11T22:21:24.405Z,0.80
2022-09-11T22:23:56.328Z,1.23
2022-09-11T22:26:26.927Z,1.00
2022-09-11T22:28:59.159Z,1.40
2022-09-11T22:31:30.434Z,1.25
2022-09-11T22:34:01.606Z,0.90
2022-09-11T22:36:33.779Z,1.35
2022-09-11T22:39:06.618Z,0.95
2022-09-11T22:41:37.234Z,1.58
2022-09-11T22:44:08.022Z,0.75
2022-09-11T22:46:39.136Z,1.13
2022-09-11T22:49:11.208Z,0.70
2022-09-11T22:51:41.896Z,1.08
2022-09-11T22:54:15.124Z,1.05
2022-09-11T22:56:46.079Z,1.08
2022-09-11T22:59:16.763Z,0.93
2022-09-11T23:01:47.480Z,1.65
2022-09-11T23:04:18.165Z,1.27
2022-09-11T23:09:40.128Z,1.20
2022-09-11T23:12:10.986Z,1.05
2022-09-11T23:14:41.645Z,0.70
2022-09-11T23:17:12.209Z,0.80
2022-09-11T23:22:12.568Z,1.67
2022-09-11T23:27:12.834Z,1.15
2022-09-11T23:29:43.512Z,1.20
2022-09-11T23:32:14.619Z,1.80
2022-09-11T23:34:45.287Z,0.90
2022-09-11T23:39:46.387Z,0.60
2022-09-11T23:42:17.650Z,1.40
2022-09-11T23:44:48.213Z,0.90
2022-09-11T23:47:19.663Z,0.70
2022-09-11T23:49:50.684Z,1.08
2022-09-11T23:52:21.259Z,1.08
2022-09-11T23:57:21.764Z,0.93
